Time;durP1;ratioP1;P1;durP2;ratioP2;P2;SDS_P1;SDS_P2;PMS_P1;PMS_P2;Temp;Humidity;BMP_temperature;BMP_pressure;BME280_temperature;BME280_humidity;BME280_pressure;Samples;Min_cycle;Max_cycle;Signal;HPM_P1;HPM_P2
2023/09/20 00:01:51;;;;;;;;;3.00;3.00;;;;;17.24;84.86;100657.50;5047989;28;8907;-69
2023/09/20 00:04:21;;;;;;;;;2.50;2.50;;;;;17.25;84.85;100664.59;5047658;28;8826;-69
2023/09/20 00:06:48;;;;;;;;;5.00;5.00;;;;;17.24;84.63;100658.31;5042556;28;8930;-68
2023/09/20 00:09:17;;;;;;;;;8.00;7.00;;;;;17.14;85.28;100663.59;5044932;28;8825;-68
2023/09/20 00:11:44;;;;;;;;;5.00;4.00;;;;;17.12;85.34;100652.09;5075246;22;8905;-65
2023/09/20 00:14:11;;;;;;;;;6.50;6.50;;;;;17.23;85.15;100655.84;5025746;28;8847;-67
2023/09/20 00:16:37;;;;;;;;;2.50;2.00;;;;;17.26;84.91;100655.38;5025202;28;8987;-67
2023/09/20 00:19:04;;;;;;;;;6.00;4.00;;;;;17.26;84.63;100653.47;5026293;28;8906;-68
2023/09/20 00:21:30;;;;;;;;;5.25;5.25;;;;;17.28;84.59;100651.31;5026232;28;8836;-68
2023/09/20 00:23:57;;;;;;;;;9.50;4.50;;;;;17.24;85.30;100655.59;5011732;28;8832;-68
2023/09/20 00:26:23;;;;;;;;;3.25;2.75;;;;;17.28;84.72;100659.50;5027770;28;8939;-68
2023/09/20 00:28:50;;;;;;;;;6.50;5.75;;;;;17.28;84.79;100656.78;5027543;28;8860;-69
2023/09/20 00:31:17;;;;;;;;;5.50;5.00;;;;;17.30;84.96;100654.66;5029457;28;8856;-68
2023/09/20 00:33:44;;;;;;;;;3.50;3.50;;;;;17.29;85.10;100655.69;5026986;28;8836;-68
2023/09/20 00:36:18;;;;;;;;;5.00;5.00;;;;;17.25;84.69;100650.97;5027442;28;8832;-68
2023/09/20 00:38:45;;;;;;;;;5.75;4.75;;;;;17.27;84.84;100654.31;5029007;28;8841;-69
2023/09/20 00:41:12;;;;;;;;;5.25;5.25;;;;;17.23;84.86;100653.97;5029933;28;8859;-68
2023/09/20 00:43:38;;;;;;;;;3.00;3.00;;;;;17.30;85.17;100656.53;5009021;28;8873;-69
2023/09/20 00:46:07;;;;;;;;;7.25;3.25;;;;;17.30;84.60;100657.38;5026341;28;8972;-69
2023/09/20 00:48:34;;;;;;;;;3.50;3.50;;;;;17.32;84.35;100642.69;5033537;28;8846;-69
2023/09/20 00:51:02;;;;;;;;;3.50;3.50;;;;;17.32;84.59;100651.66;5028948;28;9654;-69
2023/09/20 00:53:29;;;;;;;;;4.25;4.25;;;;;17.32;84.76;100648.94;5032786;28;8903;-70
2023/09/20 00:55:55;;;;;;;;;3.75;2.00;;;;;17.25;84.86;100651.81;5022753;28;8979;-69
2023/09/20 00:58:23;;;;;;;;;3.75;3.75;;;;;17.22;84.74;100651.50;5028930;28;8825;-71
2023/09/20 01:00:54;;;;;;;;;3.75;2.25;;;;;17.25;84.99;100656.44;5026640;28;8828;-69
2023/09/20 01:03:23;;;;;;;;;2.25;2.25;;;;;17.25;84.87;100650.97;5026444;28;9386;-68
2023/09/20 01:05:51;;;;;;;;;3.50;3.50;;;;;17.26;84.42;100645.31;5029730;28;8910;-69
2023/09/20 01:08:19;;;;;;;;;4.00;4.00;;;;;17.18;84.83;100645.72;5025257;28;8836;-68
2023/09/20 01:10:46;;;;;;;;;3.00;3.00;;;;;17.16;85.06;100642.38;5029640;28;8875;-68
2023/09/20 01:13:15;;;;;;;;;3.00;3.00;;;;;17.17;84.58;100637.78;5027680;28;9594;-67
2023/09/20 01:15:42;;;;;;;;;4.50;4.50;;;;;17.21;84.92;100637.03;5027346;28;8846;-68
2023/09/20 01:18:09;;;;;;;;;2.25;2.25;;;;;17.23;84.78;100634.09;5023801;28;9789;-68
2023/09/20 01:20:39;;;;;;;;;3.75;2.50;;;;;17.21;84.84;100634.31;5028304;28;8962;-69
2023/09/20 01:23:05;;;;;;;;;2.50;1.50;;;;;17.23;84.66;100631.38;5011979;28;8879;-68
2023/09/20 01:25:36;;;;;;;;;3.50;3.50;;;;;17.23;84.49;100640.34;5028436;28;8859;-68
2023/09/20 01:28:05;;;;;;;;;2.75;2.50;;;;;17.16;84.94;100636.94;5022981;28;8847;-69
2023/09/20 01:30:36;;;;;;;;;1.00;1.00;;;;;17.20;84.98;100637.28;5024241;28;8891;-67
2023/09/20 01:33:06;;;;;;;;;2.25;2.25;;;;;17.18;85.00;100637.56;5024542;28;8836;-69
2023/09/20 01:35:35;;;;;;;;;2.25;2.25;;;;;17.23;84.92;100631.38;5028503;28;8844;-68
2023/09/20 01:38:06;;;;;;;;;2.00;2.00;;;;;17.24;84.77;100633.03;5019709;28;8858;-69
2023/09/20 01:40:33;;;;;;;;;4.00;1.75;;;;;17.27;84.55;100627.09;5022046;28;8930;-69
2023/09/20 01:43:03;;;;;;;;;4.00;2.75;;;;;17.28;84.55;100647.78;5025186;28;8848;-68
2023/09/20 01:45:30;;;;;;;;;3.00;3.00;;;;;17.20;84.64;100646.28;5024411;28;8837;-68
2023/09/20 01:48:06;;;;;;;;;4.00;3.00;;;;;17.21;84.83;100638.94;5028679;28;9523;-68
2023/09/20 01:50:33;;;;;;;;;4.00;4.00;;;;;17.20;84.83;100635.41;5030435;28;8872;-69
2023/09/20 01:53:02;;;;;;;;;7.00;3.25;;;;;17.23;84.57;100637.63;5025745;28;8848;-70
2023/09/20 01:55:31;;;;;;;;;2.00;2.00;;;;;17.23;84.71;100642.25;5032581;28;8871;-68
2023/09/20 01:58:12;;;;;;;;;3.50;3.50;;;;;17.22;84.93;100641.44;5030631;28;8866;-68
2023/09/20 02:00:42;;;;;;;;;3.25;2.75;;;;;17.19;84.61;100636.47;5030786;28;8914;-69
2023/09/20 02:03:14;;;;;;;;;5.75;4.50;;;;;17.20;84.70;100643.56;5029977;28;8844;-68
2023/09/20 02:05:41;;;;;;;;;6.25;2.75;;;;;17.10;84.86;100632.50;5030955;28;8973;-68
2023/09/20 02:08:08;;;;;;;;;6.25;3.75;;;;;17.16;84.81;100630.69;5030555;28;8855;-68
2023/09/20 02:10:39;;;;;;;;;4.50;4.00;;;;;17.07;85.01;100624.81;5045411;28;8848;-69
2023/09/20 02:13:07;;;;;;;;;5.25;2.75;;;;;17.10;84.80;100632.50;5025317;28;8837;-69
2023/09/20 02:15:35;;;;;;;;;4.00;3.00;;;;;17.13;84.61;100637.44;5030801;28;8872;-70
2023/09/20 02:18:05;;;;;;;;;3.00;3.00;;;;;17.12;84.21;100624.91;5035119;28;8950;-69
2023/09/20 02:20:36;;;;;;;;;3.00;2.75;;;;;17.11;84.25;100625.16;5047171;28;8840;-69
2023/09/20 02:23:06;;;;;;;;;5.00;4.00;;;;;17.09;84.17;100613.69;5030122;28;8852;-69
2023/09/20 02:25:32;;;;;;;;;2.75;2.75;;;;;17.09;84.10;100608.25;5029905;28;8844;-69
2023/09/20 02:28:02;;;;;;;;;5.75;3.25;;;;;17.09;83.95;100609.06;5030091;28;8917;-69
2023/09/20 02:30:31;;;;;;;;;2.25;2.25;;;;;17.11;83.60;100600.69;5029310;28;8912;-69
2023/09/20 02:32:59;;;;;;;;;3.50;2.75;;;;;17.12;83.44;100602.31;5026386;28;8883;-69
2023/09/20 02:35:28;;;;;;;;;3.50;3.50;;;;;17.04;83.42;100590.75;5026995;28;8949;-69
2023/09/20 02:37:56;;;;;;;;;4.00;3.75;;;;;17.10;83.52;100588.97;5029932;28;8848;-69
2023/09/20 02:40:27;;;;;;;;;6.25;6.00;;;;;17.09;83.30;100598.19;5031656;28;8863;-68
2023/09/20 02:42:58;;;;;;;;;3.50;3.50;;;;;17.10;83.16;100583.53;5032360;28;8868;-68
2023/09/20 02:45:28;;;;;;;;;5.00;2.50;;;;;17.12;83.19;100589.53;5031207;28;8836;-68
2023/09/20 02:47:57;;;;;;;;;4.25;3.75;;;;;17.12;82.85;100586.81;5027373;28;8858;-69
2023/09/20 02:50:25;;;;;;;;;2.00;2.00;;;;;17.11;82.90;100585.19;5031050;28;8950;-69
2023/09/20 02:52:53;;;;;;;;;6.50;5.00;;;;;17.04;83.20;100579.88;5032243;28;8829;-69
2023/09/20 02:55:22;;;;;;;;;5.75;1.75;;;;;17.06;82.83;100576.94;5027083;28;8860;-68
2023/09/20 02:57:52;;;;;;;;;4.00;4.00;;;;;17.02;82.95;100581.22;5023723;28;8841;-68
2023/09/20 03:00:27;;;;;;;;;5.00;4.00;;;;;16.99;83.41;100577.06;5031054;28;8856;-69
2023/09/20 03:02:57;;;;;;;;;2.50;2.50;;;;;16.94;83.14;100577.00;5029553;28;8876;-68
2023/09/20 03:05:26;;;;;;;;;4.50;2.75;;;;;17.01;83.11;100576.81;5030401;28;8864;-69
2023/09/20 03:07:53;;;;;;;;;4.00;2.75;;;;;17.09;82.51;100583.75;5028318;28;8816;-69
2023/09/20 03:10:21;;;;;;;;;3.00;3.00;;;;;17.09;82.75;100576.44;5029947;28;8856;-69
2023/09/20 03:12:54;;;;;;;;;5.00;4.00;;;;;17.09;82.50;100572.88;5030369;28;8844;-69
2023/09/20 03:15:25;;;;;;;;;5.75;5.00;;;;;16.99;82.45;100574.34;5030744;28;8858;-69
2023/09/20 03:17:54;;;;;;;;;2.75;2.75;;;;;17.00;82.68;100570.56;5030408;28;8840;-69
2023/09/20 03:20:24;;;;;;;;;6.75;3.50;;;;;16.96;82.58;100569.41;5022968;28;8850;-68
2023/09/20 03:22:59;;;;;;;;;2.25;2.25;;;;;17.00;82.41;100567.03;5029682;28;8845;-69
2023/09/20 03:25:37;;;;;;;;;3.00;3.00;;;;;17.02;82.31;100557.56;5030567;28;8867;-68
2023/09/20 03:28:15;;;;;;;;;3.25;3.00;;;;;17.06;82.26;100552.47;5029945;28;8855;-70
2023/09/20 03:30:42;;;;;;;;;4.25;2.00;;;;;17.09;82.10;100549.22;5025689;28;8836;-68
2023/09/20 03:33:10;;;;;;;;;5.25;2.75;;;;;17.11;82.22;100555.28;5024221;28;8844;-69
2023/09/20 03:35:39;;;;;;;;;4.25;4.25;;;;;17.12;82.17;100556.09;5027903;28;8846;-69
2023/09/20 03:38:06;;;;;;;;;1.75;1.75;;;;;17.15;82.06;100553.72;5028116;28;8828;-69
2023/09/20 03:40:33;;;;;;;;;6.75;4.00;;;;;17.05;81.98;100542.63;5029509;28;8850;-70
2023/09/20 03:43:07;;;;;;;;;6.00;6.00;;;;;16.99;81.72;100540.91;5029596;28;8840;-69
2023/09/20 03:45:36;;;;;;;;;2.75;2.75;;;;;17.02;81.82;100535.00;5030014;28;8840;-68
2023/09/20 03:48:03;;;;;;;;;6.50;2.25;;;;;17.05;81.86;100540.75;5038354;28;8856;-69
2023/09/20 03:50:30;;;;;;;;;5.75;3.50;;;;;17.04;81.82;100539.09;5030610;28;9632;-68
2023/09/20 03:52:57;;;;;;;;;4.00;2.67;;;;;17.02;81.87;100543.16;5029805;28;8849;-68
2023/09/20 03:55:23;;;;;;;;;3.00;3.00;;;;;17.03;81.70;100533.91;5029454;28;8914;-69
2023/09/20 03:57:50;;;;;;;;;3.00;3.00;;;;;17.03;81.69;100531.19;5028892;28;8843;-69
2023/09/20 04:00:24;;;;;;;;;2.75;2.75;;;;;17.06;81.88;100528.00;5029872;28;10009;-68
2023/09/20 04:02:53;;;;;;;;;3.00;3.00;;;;;17.09;81.67;100530.19;5026073;28;8825;-68
2023/09/20 04:05:20;;;;;;;;;2.00;1.75;;;;;17.08;81.90;100530.44;5029292;28;8998;-69
2023/09/20 04:08:08;;;;;;;;;1.75;1.75;;;;;17.03;81.55;100518.41;5026205;28;8849;-68
2023/09/20 04:10:35;;;;;;;;;6.50;4.50;;;;;16.99;81.83;100517.25;5029461;28;8872;-69
2023/09/20 04:13:02;;;;;;;;;3.00;2.00;;;;;16.98;81.84;100514.78;5029873;28;8843;-69
2023/09/20 04:15:29;;;;;;;;;1.75;1.00;;;;;17.00;81.83;100518.91;5029044;28;8840;-69
2023/09/20 04:17:56;;;;;;;;;2.00;2.00;;;;;17.01;81.96;100503.41;5009421;28;8856;-69
2023/09/20 04:20:23;;;;;;;;;3.75;2.75;;;;;16.98;81.78;100507.44;5030529;28;8839;-69
2023/09/20 04:22:50;;;;;;;;;4.00;3.00;;;;;17.00;81.99;100509.91;5031273;28;8844;-69
2023/09/20 04:25:17;;;;;;;;;4.50;3.00;;;;;16.98;81.72;100495.75;5013638;28;8840;-66
2023/09/20 04:27:46;;;;;;;;;7.25;4.00;;;;;16.97;81.94;100502.25;5026997;28;8840;-70
2023/09/20 04:30:14;;;;;;;;;4.50;3.00;;;;;17.00;82.08;100509.91;5029814;28;8825;-69
2023/09/20 04:32:42;;;;;;;;;2.75;2.25;;;;;17.06;81.84;100506.22;5029109;28;8903;-69
2023/09/20 04:35:17;;;;;;;;;4.75;3.00;;;;;17.08;81.32;100505.97;5027219;28;8835;-69
2023/09/20 04:37:44;;;;;;;;;2.75;2.00;;;;;17.10;81.62;100499.22;5025777;28;8874;-69
2023/09/20 04:40:10;;;;;;;;;5.00;2.00;;;;;17.07;81.80;100499.72;5013966;28;8840;-70
2023/09/20 04:42:38;;;;;;;;;3.00;3.00;;;;;17.04;81.84;100508.34;5030100;28;9676;-69
2023/09/20 04:45:07;;;;;;;;;2.25;2.25;;;;;17.01;81.53;100498.81;5030100;28;8953;-69
2023/09/20 04:47:37;;;;;;;;;4.00;3.25;;;;;17.02;81.92;100494.19;5030061;28;8832;-69
2023/09/20 04:50:04;;;;;;;;;5.25;4.00;;;;;17.02;81.78;100496.91;5025117;28;8859;-69
2023/09/20 04:52:31;;;;;;;;;5.75;4.50;;;;;17.00;81.58;100497.13;5028188;28;8856;-69
2023/09/20 04:54:57;;;;;;;;;2.25;2.00;;;;;17.03;81.64;100484.97;5029869;28;8832;-69
2023/09/20 04:57:25;;;;;;;;;4.00;3.75;;;;;17.05;81.36;100486.38;5022301;28;8856;-69
2023/09/20 04:59:52;;;;;;;;;5.00;2.00;;;;;17.04;81.29;100484.69;5027707;28;8863;-70
2023/09/20 05:02:18;;;;;;;;;4.50;2.00;;;;;17.02;81.35;100496.91;5025929;28;8817;-69
2023/09/20 05:04:45;;;;;;;;;2.25;2.00;;;;;16.97;81.42;100484.03;5028672;28;9609;-69
2023/09/20 05:07:11;;;;;;;;;3.00;1.75;;;;;16.95;81.55;100494.34;5026974;28;8855;-69
2023/09/20 05:09:38;;;;;;;;;3.25;3.25;;;;;16.96;81.46;100485.09;5026782;28;8820;-69
2023/09/20 05:12:09;;;;;;;;;3.50;3.50;;;;;16.96;81.41;100500.59;5028222;28;8852;-70
2023/09/20 05:14:36;;;;;;;;;3.00;3.00;;;;;16.97;81.46;100488.66;5028273;28;8925;-70
2023/09/20 05:17:04;;;;;;;;;3.00;3.00;;;;;16.91;81.50;100490.47;5023948;28;8829;-69
2023/09/20 05:19:31;;;;;;;;;5.00;2.50;;;;;16.96;81.71;100506.03;5041648;28;8844;-69
2023/09/20 05:22:00;;;;;;;;;6.00;3.75;;;;;16.95;81.68;100494.34;5030261;28;8927;-69
2023/09/20 05:24:27;;;;;;;;;5.00;4.50;;;;;16.83;81.92;100501.72;5033822;28;8830;-69
2023/09/20 05:26:53;;;;;;;;;3.00;3.00;;;;;16.85;81.86;100498.75;5032572;28;8836;-69
2023/09/20 05:29:21;;;;;;;;;2.00;2.00;;;;;16.92;81.77;100499.44;5028384;28;9034;-69
2023/09/20 05:31:49;;;;;;;;;4.25;3.25;;;;;16.87;81.74;100497.47;5033538;28;8845;-69
2023/09/20 05:34:16;;;;;;;;;3.50;2.00;;;;;16.80;81.84;100491.34;5032072;28;8848;-69
2023/09/20 05:36:43;;;;;;;;;1.50;1.50;;;;;16.84;82.14;100495.22;5031208;28;8844;-69
2023/09/20 05:39:12;;;;;;;;;2.25;2.25;;;;;16.88;81.95;100499.09;5031451;28;8841;-69
2023/09/20 05:41:39;;;;;;;;;4.00;3.25;;;;;16.82;81.72;100496.56;5033526;28;9050;-69
2023/09/20 05:44:06;;;;;;;;;3.00;3.00;;;;;16.80;81.58;100485.91;5030973;28;8959;-69
2023/09/20 05:46:33;;;;;;;;;2.75;2.75;;;;;16.86;82.00;100492.28;5026311;28;8937;-69
2023/09/20 05:48:59;;;;;;;;;2.00;2.00;;;;;16.84;81.54;100491.69;5026835;28;8824;-70
2023/09/20 05:51:26;;;;;;;;;2.00;2.00;;;;;16.83;81.69;100484.59;5029734;28;9561;-69
2023/09/20 05:53:52;;;;;;;;;3.75;3.00;;;;;16.75;81.67;100493.97;5027875;28;8885;-69
2023/09/20 05:56:19;;;;;;;;;5.50;3.25;;;;;16.80;81.81;100494.88;5024446;28;8836;-70
2023/09/20 05:58:46;;;;;;;;;4.00;4.00;;;;;16.83;81.60;100493.56;5022613;28;9961;-69
2023/09/20 06:01:13;;;;;;;;;3.75;2.75;;;;;16.83;81.63;100493.56;5029407;28;8840;-69
2023/09/20 06:03:40;;;;;;;;;4.00;4.00;;;;;16.79;81.36;100495.13;5031170;28;8848;-71
2023/09/20 06:06:09;;;;;;;;;4.00;4.00;;;;;16.79;81.64;100492.41;5025815;28;8840;-70
2023/09/20 06:08:36;;;;;;;;;3.00;2.00;;;;;16.85;81.36;100496.03;5029576;28;8896;-69
2023/09/20 06:11:06;;;;;;;;;4.00;3.00;;;;;16.82;81.36;100493.84;5031612;28;8852;-69
2023/09/20 06:13:33;;;;;;;;;4.00;3.50;;;;;16.84;81.14;100492.50;5029678;28;8898;-69
2023/09/20 06:16:05;;;;;;;;;3.25;3.00;;;;;16.86;81.31;100493.09;5029556;28;8855;-69
2023/09/20 06:18:32;;;;;;;;;2.25;2.25;;;;;16.88;81.52;100490.94;5031247;28;9523;-69
2023/09/20 06:21:00;;;;;;;;;2.25;2.25;;;;;16.90;81.24;100488.00;5029404;28;8840;-68
2023/09/20 06:23:28;;;;;;;;;4.00;3.00;;;;;16.90;81.11;100486.09;5031315;28;8844;-68
2023/09/20 06:26:03;;;;;;;;;6.25;2.25;;;;;16.91;81.09;100476.03;5031245;28;8871;-69
2023/09/20 06:28:31;;;;;;;;;6.00;2.50;;;;;16.90;81.18;100479.84;5032379;28;8821;-69
2023/09/20 06:30:58;;;;;;;;;2.00;1.50;;;;;16.90;81.27;100486.09;5031425;28;8833;-69
2023/09/20 06:33:25;;;;;;;;;3.75;3.75;;;;;16.87;81.32;100494.75;5047165;28;9543;-69
2023/09/20 06:35:53;;;;;;;;;4.00;4.00;;;;;16.84;81.62;100478.91;5032103;28;8921;-69
2023/09/20 06:38:19;;;;;;;;;4.00;3.75;;;;;16.82;81.59;100480.25;5032151;28;8833;-70
2023/09/20 06:40:53;;;;;;;;;3.00;3.00;;;;;16.87;81.11;100488.47;5032708;28;8855;-69
2023/09/20 06:43:19;;;;;;;;;2.75;2.00;;;;;16.90;81.24;100485.28;5032348;28;8836;-69
2023/09/20 06:45:52;;;;;;;;;3.25;3.00;;;;;16.79;81.63;100485.09;5032100;28;8852;-69
2023/09/20 06:48:22;;;;;;;;;3.00;3.00;;;;;16.87;81.57;100486.59;5030842;28;9022;-68
2023/09/20 06:50:54;;;;;;;;;4.25;3.00;;;;;16.90;81.86;100488.00;5032498;28;9563;-69
2023/09/20 06:53:23;;;;;;;;;5.00;3.00;;;;;16.91;81.34;100481.50;5030714;28;8858;-69
2023/09/20 06:55:50;;;;;;;;;3.25;1.25;;;;;16.82;81.56;100485.69;5032187;28;8966;-70
2023/09/20 06:58:17;;;;;;;;;3.75;2.25;;;;;16.88;81.53;100476.53;5031779;28;8839;-68
2023/09/20 07:00:47;;;;;;;;;4.50;3.75;;;;;16.85;82.01;100486.00;5031860;28;8913;-69
2023/09/20 07:03:14;;;;;;;;;3.00;3.00;;;;;16.78;82.28;100480.72;5030461;28;8849;-68
2023/09/20 07:05:41;;;;;;;;;1.25;1.25;;;;;16.79;81.78;100476.94;5031835;28;8844;-68
2023/09/20 07:08:08;;;;;;;;;6.00;2.00;;;;;16.86;81.77;100473.25;5030587;28;8851;-69
2023/09/20 07:10:36;;;;;;;;;3.00;2.00;;;;;16.84;82.17;100468.03;5030584;28;8848;-69
2023/09/20 07:13:05;;;;;;;;;3.00;2.75;;;;;16.89;81.96;100468.13;5030571;28;8855;-69
2023/09/20 07:15:34;;;;;;;;;3.50;2.00;;;;;16.87;81.78;100469.44;5030527;28;8979;-68
2023/09/20 07:18:11;;;;;;;;;3.00;3.00;;;;;16.83;81.95;100463.69;5031516;28;8890;-69
2023/09/20 07:20:40;;;;;;;;;3.00;2.75;;;;;16.83;82.24;100473.72;5030621;28;8851;-69
2023/09/20 07:23:10;;;;;;;;;3.00;2.25;;;;;16.93;82.26;100476.63;5031596;28;8857;-69
2023/09/20 07:25:37;;;;;;;;;8.50;5.50;;;;;16.95;81.80;100483.47;5031532;28;8962;-69
2023/09/20 07:28:06;;;;;;;;;4.00;4.00;;;;;16.99;82.06;100481.09;5029950;28;8918;-69
2023/09/20 07:30:39;;;;;;;;;4.75;4.00;;;;;16.98;81.75;100484.88;5030082;28;8828;-69
2023/09/20 07:33:11;;;;;;;;;2.00;2.00;;;;;17.00;81.98;100488.97;5031185;28;8875;-69
2023/09/20 07:35:52;;;;;;;;;3.00;3.00;;;;;17.02;81.68;100496.91;5031422;28;8840;-69
2023/09/20 07:38:27;;;;;;;;;3.50;2.25;;;;;17.07;81.65;100498.91;5030869;28;8848;-69
2023/09/20 07:41:21;;;;;;;;;4.75;4.00;;;;;17.02;81.52;100499.63;5030084;28;8903;-68
2023/09/20 07:43:48;;;;;;;;;6.75;3.50;;;;;16.99;81.71;100511.81;5028209;28;8852;-69
2023/09/20 07:46:15;;;;;;;;;3.00;2.00;;;;;17.04;81.76;100509.19;5030208;28;8836;-68
2023/09/20 07:48:48;;;;;;;;;5.00;4.75;;;;;17.01;81.94;100511.56;5029738;28;9544;-69
2023/09/20 07:51:20;;;;;;;;;6.00;5.00;;;;;16.96;81.93;100523.16;5031438;28;9670;-69
2023/09/20 07:53:53;;;;;;;;;6.75;6.50;;;;;16.98;81.67;100526.50;5030945;28;8938;-69
2023/09/20 07:56:20;;;;;;;;;7.00;6.00;;;;;16.91;82.23;100516.84;5030839;28;8844;-69
2023/09/20 07:58:47;;;;;;;;;4.50;4.50;;;;;16.90;82.23;100526.88;5030028;28;8931;-69
2023/09/20 08:01:20;;;;;;;;;3.25;3.25;;;;;16.98;82.21;100526.50;5029786;28;8820;-69
2023/09/20 08:03:58;;;;;;;;;7.00;7.00;;;;;17.02;81.89;100522.22;5031205;28;8967;-69
2023/09/20 08:06:33;;;;;;;;;5.00;4.00;;;;;16.96;82.28;100533.22;5030631;28;8820;-69
2023/09/20 08:09:01;;;;;;;;;4.50;4.50;;;;;16.93;82.48;100528.28;5031054;28;8842;-69
2023/09/20 08:11:28;;;;;;;;;5.00;5.00;;;;;16.95;82.51;100528.88;5029040;28;8844;-69
2023/09/20 08:13:57;;;;;;;;;7.75;7.00;;;;;16.96;82.01;100538.66;5030564;28;8840;-69
2023/09/20 08:16:24;;;;;;;;;5.25;5.25;;;;;17.00;82.06;100540.66;5030310;28;8824;-69
2023/09/20 08:19:21;;;;;;;;;5.00;5.00;;;;;16.98;82.00;100544.69;5030928;28;8832;-69
2023/09/20 08:21:49;;;;;;;;;4.50;4.50;;;;;16.98;82.16;100544.69;5029304;28;8886;-69
2023/09/20 09:00:49;;;;;;;;;6.00;6.00;;;;;17.24;82.27;100533.19;5029855;28;8824;-69
2023/09/20 09:03:08;;;;;;;;;6.25;4.50;;;;;17.26;81.84;100522.09;5028406;28;8958;-69
2023/09/20 09:05:35;;;;;;;;;7.25;7.25;;;;;17.27;81.57;100519.09;5029581;28;8910;-69
2023/09/20 09:08:03;;;;;;;;;5.00;5.00;;;;;17.32;81.82;100518.34;5028477;28;8958;-69
2023/09/20 09:10:30;;;;;;;;;4.25;4.00;;;;;17.33;81.48;100520.00;5028688;28;9540;-69
2023/09/20 09:12:57;;;;;;;;;4.50;4.50;;;;;17.33;81.62;100520.00;5030215;28;8872;-70
2023/09/20 09:15:25;;;;;;;;;7.00;7.00;;;;;17.31;81.49;100514.00;5028489;28;8824;-69
2023/09/20 09:17:52;;;;;;;;;6.75;6.75;;;;;17.25;81.47;100521.22;5029276;28;8914;-69
2023/09/20 09:20:19;;;;;;;;;9.50;9.50;;;;;17.18;81.84;100517.03;5029927;28;8832;-69
2023/09/20 09:22:49;;;;;;;;;6.00;6.00;;;;;17.21;81.87;100524.69;5029632;28;9583;-69
2023/09/20 09:25:24;;;;;;;;;7.25;7.00;;;;;17.21;81.67;100520.06;5029915;28;9681;-69
2023/09/20 09:27:51;;;;;;;;;8.00;7.50;;;;;17.19;82.25;100521.41;5029503;28;9534;-69
2023/09/20 09:30:17;;;;;;;;;8.25;8.00;;;;;17.23;82.08;100525.28;5029605;28;8824;-69
2023/09/20 09:32:48;;;;;;;;;11.00;8.25;;;;;17.22;82.24;100524.47;5028012;28;8884;-70
2023/09/20 09:35:18;;;;;;;;;5.00;5.00;;;;;17.22;82.03;100535.34;5030011;28;8816;-69
2023/09/20 09:38:00;;;;;;;;;6.00;6.00;;;;;17.27;81.71;100540.88;5029459;28;8836;-69
2023/09/20 09:40:28;;;;;;;;;9.00;6.50;;;;;17.22;82.08;100535.34;5029902;28;8840;-69
2023/09/20 09:43:10;;;;;;;;;4.25;4.25;;;;;17.32;81.55;100539.31;5029178;28;8832;-69
2023/09/20 09:45:38;;;;;;;;;8.25;6.25;;;;;17.33;81.68;100532.78;5028202;28;8925;-70
2023/09/20 09:48:06;;;;;;;;;8.25;7.25;;;;;17.33;81.78;100536.31;5029307;28;8841;-69
2023/09/20 09:50:38;;;;;;;;;8.00;7.75;;;;;17.35;81.49;100538.81;5029979;28;8834;-69
2023/09/20 09:53:08;;;;;;;;;5.50;5.25;;;;;17.35;81.60;100533.38;5028034;28;8910;-69
2023/09/20 09:55:37;;;;;;;;;7.75;7.00;;;;;17.31;81.99;100533.03;5029731;28;8817;-69
2023/09/20 09:58:04;;;;;;;;;8.25;7.00;;;;;17.32;81.70;100531.16;5028816;28;9566;-69
2023/09/20 10:00:33;;;;;;;;;8.00;7.00;;;;;17.36;81.77;100521.41;5029526;28;8894;-70
2023/09/20 10:03:11;;;;;;;;;4.25;4.25;;;;;17.39;81.69;100513.59;5029549;28;8943;-69
2023/09/20 10:05:42;;;;;;;;;5.00;5.00;;;;;17.38;82.08;100520.09;5028030;28;8855;-69
2023/09/20 10:08:13;;;;;;;;;4.00;4.00;;;;;17.43;81.93;100513.91;5028348;28;8915;-69
2023/09/20 10:10:41;;;;;;;;;5.50;5.00;;;;;17.49;81.67;100521.06;5032787;28;8821;-69
2023/09/20 10:13:13;;;;;;;;;6.00;6.00;;;;;17.45;81.40;100525.38;5031514;28;8880;-69
2023/09/20 10:15:43;;;;;;;;;5.50;5.00;;;;;17.39;81.74;100505.44;5031399;28;8820;-69
2023/09/20 10:18:11;;;;;;;;;5.75;5.50;;;;;17.29;81.91;100506.06;5032950;28;8828;-68
2023/09/20 10:21:14;;;;;;;;;8.00;6.00;;;;;17.40;81.78;100495.38;5032393;28;8849;-69
2023/09/20 10:23:44;;;;;;;;;8.00;6.50;;;;;17.41;81.76;100506.00;5032876;28;8871;-68
2023/09/20 10:26:15;;;;;;;;;7.75;7.75;;;;;17.40;81.99;100489.91;5031046;28;8859;-68
2023/09/20 10:28:44;;;;;;;;;9.00;8.50;;;;;17.40;81.80;100496.19;5032949;28;8947;-69
2023/09/20 10:31:19;;;;;;;;;5.75;5.75;;;;;17.48;81.61;100487.59;5032433;28;8843;-68
2023/09/20 10:33:51;;;;;;;;;11.00;9.25;;;;;17.45;81.47;100484.56;5031122;28;8840;-68
2023/09/20 10:36:23;;;;;;;;;14.00;11.67;;;;;17.38;81.69;100489.31;5030757;28;8832;-69
2023/09/20 10:39:18;;;;;;;;;9.75;7.75;;;;;17.45;81.57;100496.25;5032398;28;9584;-68
2023/09/20 10:41:46;;;;;;;;;9.50;8.25;;;;;17.41;81.58;100502.44;5031782;28;8840;-69
2023/09/20 10:44:35;;;;;;;;;8.00;8.00;;;;;17.38;81.47;100489.31;5030968;28;8848;-69
2023/09/20 10:47:12;;;;;;;;;8.75;8.75;;;;;17.39;81.10;100482.84;5031609;28;8866;-69
2023/09/20 10:49:53;;;;;;;;;10.25;7.50;;;;;17.41;81.55;100486.13;5032152;28;8836;-69
2023/09/20 10:52:37;;;;;;;;;6.25;6.25;;;;;17.54;81.12;100478.47;5030491;28;8860;-70
2023/09/20 10:55:17;;;;;;;;;7.75;7.75;;;;;17.68;80.65;100476.19;5032416;28;8826;-69
2023/09/20 10:57:45;;;;;;;;;10.00;7.00;;;;;17.70;80.93;100465.91;5031759;28;8833;-69
2023/09/20 11:00:14;;;;;;;;;7.00;7.00;;;;;17.63;80.61;100467.97;5032045;28;8841;-69
2023/09/20 11:02:42;;;;;;;;;8.50;8.50;;;;;17.63;80.71;100461.69;5031876;28;8871;-69
2023/09/20 11:05:11;;;;;;;;;5.25;5.25;;;;;17.74;80.59;100468.91;5031755;28;8918;-70
2023/09/20 11:07:41;;;;;;;;;6.25;6.00;;;;;17.81;80.14;100471.50;5030433;28;8959;-69
2023/09/20 11:10:10;;;;;;;;;6.00;6.00;;;;;17.84;80.24;100471.81;5030700;28;8851;-69
2023/09/20 11:12:42;;;;;;;;;5.25;5.25;;;;;17.85;79.76;100467.19;5031452;28;8882;-69
2023/09/20 11:15:10;;;;;;;;;4.75;4.75;;;;;17.77;80.01;100480.16;5031779;28;8852;-70
2023/09/20 11:17:38;;;;;;;;;5.75;4.00;;;;;17.74;80.07;100471.63;5031533;28;9559;-69
2023/09/20 11:20:07;;;;;;;;;5.75;5.75;;;;;17.78;79.63;100464.66;5029889;28;8975;-69
2023/09/20 11:22:34;;;;;;;;;3.25;3.25;;;;;17.85;79.37;100478.91;5031654;28;8875;-69
2023/09/20 11:25:00;;;;;;;;;2.75;2.75;;;;;17.92;79.56;100479.56;5030585;28;8863;-71
2023/09/20 11:27:30;;;;;;;;;4.00;4.00;;;;;17.91;79.20;100477.09;5013636;28;8864;-70
2023/09/20 11:30:10;;;;;;;;;8.50;7.00;;;;;17.92;79.08;100476.03;5031462;28;8812;-70
2023/09/20 11:32:39;;;;;;;;;3.25;3.25;;;;;18.03;78.85;100462.28;5030199;28;8875;-71
2023/09/20 11:35:07;;;;;;;;;7.25;4.75;;;;;18.10;78.69;100466.72;5030050;28;8879;-71
2023/09/20 11:37:38;;;;;;;;;3.00;2.00;;;;;18.13;78.77;100461.56;5026012;28;8837;-71
2023/09/20 11:40:05;;;;;;;;;5.00;2.50;;;;;18.16;78.35;100469.25;5030886;28;8899;-70
2023/09/20 11:42:34;;;;;;;;;6.25;4.50;;;;;18.13;78.53;100464.31;5029532;28;8838;-70
2023/09/20 11:45:08;;;;;;;;;5.00;3.75;;;;;18.17;78.38;100465.44;5031257;28;8902;-69
2023/09/20 11:47:54;;;;;;;;;4.50;4.50;;;;;18.15;78.51;100469.50;5031033;28;8824;-69
2023/09/20 11:50:24;;;;;;;;;7.50;4.75;;;;;18.12;78.59;100465.38;5031478;28;8829;-69
2023/09/20 11:52:53;;;;;;;;;3.25;3.25;;;;;18.18;78.50;100458.91;5032491;28;8992;-70
2023/09/20 11:55:20;;;;;;;;;4.00;4.00;;;;;18.27;78.21;100457.41;5030406;28;8825;-70
2023/09/20 11:57:48;;;;;;;;;8.50;6.00;;;;;18.24;78.46;100455.19;5031116;28;8844;-69
2023/09/20 12:00:19;;;;;;;;;5.50;5.50;;;;;18.22;78.21;100453.78;5033072;28;8829;-69
2023/09/20 12:02:46;;;;;;;;;5.00;3.50;;;;;18.32;78.22;100451.19;5032718;28;8844;-69
2023/09/20 12:05:17;;;;;;;;;2.00;2.00;;;;;18.47;78.04;100436.88;5033367;28;8866;-70
2023/09/20 12:08:01;;;;;;;;;7.00;6.00;;;;;18.54;77.72;100440.25;5032450;28;8825;-69
2023/09/20 12:10:29;;;;;;;;;7.25;6.75;;;;;18.58;77.14;100425.03;5030077;28;8851;-69
2023/09/20 12:12:56;;;;;;;;;5.00;5.00;;;;;18.73;76.47;100424.38;5029398;28;8872;-69
2023/09/20 12:15:23;;;;;;;;;5.50;5.50;;;;;18.82;75.69;100435.63;5026807;28;8844;-69
2023/09/20 12:17:55;;;;;;;;;9.50;6.00;;;;;18.82;75.51;100430.19;5030030;28;8838;-69
2023/09/20 12:20:26;;;;;;;;;6.75;5.25;;;;;18.81;74.83;100423.09;5030606;28;8813;-70
2023/09/20 12:22:56;;;;;;;;;6.75;6.75;;;;;18.87;74.62;100417.41;5026867;28;8870;-70